Time;durP1;ratioP1;P1;durP2;ratioP2;P2;SDS_P1;SDS_P2;PMS_P1;PMS_P2;Temp;Humidity;BMP_temperature;BMP_pressure;BME280_temperature;BME280_humidity;BME280_pressure;Samples;Min_cycle;Max_cycle;Signal;HPM_P1;HPM_P2
2021/12/31 00:02:39;;;;;;;0.57;0.20;;;14.30;99.90;;;;;;9177299;19;20023;-74
2021/12/31 00:05:45;;;;;;;0.17;0.10;;;14.30;99.90;;;;;;9174060;19;20044;-74
2021/12/31 00:08:50;;;;;;;0.10;0.10;;;14.30;99.90;;;;;;9174504;19;20056;-74
2021/12/31 00:11:55;;;;;;;0.10;0.08;;;14.30;99.90;;;;;;9175994;19;20086;-74
2021/12/31 00:15:02;;;;;;;0.25;0.20;;;14.30;99.90;;;;;;9174837;19;20025;-73
2021/12/31 00:18:07;;;;;;;0.70;0.20;;;14.30;99.90;;;;;;9176398;19;20025;-75
2021/12/31 00:21:12;;;;;;;0.28;0.20;;;14.40;99.90;;;;;;9175526;19;20018;-73
2021/12/31 00:24:17;;;;;;;0.13;0.10;;;14.40;99.90;;;;;;9175405;19;20093;-74
2021/12/31 00:27:22;;;;;;;0.20;0.10;;;14.40;99.90;;;;;;9174400;19;20022;-74
2021/12/31 00:30:31;;;;;;;0.30;0.10;;;14.40;99.90;;;;;;9174726;19;20106;-75
2021/12/31 00:33:36;;;;;;;0.28;0.17;;;14.40;99.90;;;;;;9173375;19;20594;-74
2021/12/31 00:36:42;;;;;;;0.20;0.08;;;14.40;99.90;;;;;;9175499;19;20030;-74
2021/12/31 00:39:47;;;;;;;0.50;0.20;;;14.40;99.90;;;;;;9173111;19;20026;-74
2021/12/31 00:42:52;;;;;;;0.57;0.22;;;14.40;99.90;;;;;;9174590;19;20018;-74
2021/12/31 00:46:02;;;;;;;0.43;0.20;;;14.40;99.90;;;;;;9176644;19;20014;-73
2021/12/31 00:49:07;;;;;;;0.20;0.17;;;14.40;99.90;;;;;;9175017;19;20021;-74
2021/12/31 00:52:12;;;;;;;0.15;0.13;;;14.40;99.90;;;;;;9173535;19;20675;-73
2021/12/31 00:55:17;;;;;;;0.47;0.30;;;14.40;99.90;;;;;;9169113;19;20018;-74
2021/12/31 00:58:22;;;;;;;0.20;0.20;;;14.40;99.90;;;;;;9173974;19;20010;-74
2021/12/31 01:01:31;;;;;;;0.22;0.10;;;14.40;99.90;;;;;;9175411;19;20060;-73
2021/12/31 01:04:37;;;;;;;0.03;0.03;;;14.40;99.90;;;;;;9172555;19;20458;-74
2021/12/31 01:07:42;;;;;;;0.32;0.10;;;14.40;99.90;;;;;;9172952;19;20475;-74
2021/12/31 01:10:47;;;;;;;0.40;0.30;;;14.40;99.90;;;;;;9174313;19;20045;-74
2021/12/31 01:13:56;;;;;;;0.28;0.10;;;14.40;99.90;;;;;;9172569;19;20351;-74
2021/12/31 01:17:08;;;;;;;0.60;0.40;;;14.40;99.90;;;;;;9173242;19;20022;-74
2021/12/31 01:20:15;;;;;;;0.25;0.13;;;14.40;99.90;;;;;;9172935;19;20026;-73
2021/12/31 01:23:20;;;;;;;0.17;0.10;;;14.40;99.90;;;;;;9172043;19;20038;-74
2021/12/31 01:26:25;;;;;;;0.70;0.20;;;14.40;99.90;;;;;;9174044;19;20026;-74
2021/12/31 01:29:30;;;;;;;0.20;0.20;;;14.40;99.90;;;;;;9174089;19;20014;-73
2021/12/31 01:32:38;;;;;;;0.80;0.35;;;14.40;99.90;;;;;;9175239;19;20022;-73
2021/12/31 01:35:43;;;;;;;0.20;0.20;;;14.40;99.90;;;;;;9173124;19;20025;-74
2021/12/31 01:38:48;;;;;;;0.15;0.10;;;14.40;99.90;;;;;;9172792;19;20371;-74
2021/12/31 01:41:55;;;;;;;0.52;0.28;;;14.40;99.90;;;;;;9170883;19;20018;-74
2021/12/31 01:45:03;;;;;;;0.30;0.20;;;14.40;99.90;;;;;;9171997;19;20605;-74
2021/12/31 01:48:22;;;;;;;0.25;0.10;;;14.40;99.90;;;;;;9173191;19;20041;-73
2021/12/31 01:51:27;;;;;;;0.60;0.40;;;14.50;99.90;;;;;;9173617;19;20018;-73
2021/12/31 01:54:33;;;;;;;0.10;0.10;;;14.40;99.90;;;;;;9170655;19;20351;-73
2021/12/31 01:57:38;;;;;;;0.38;0.20;;;14.50;99.90;;;;;;9174792;19;20668;-74
2021/12/31 02:00:43;;;;;;;0.28;0.10;;;14.50;99.90;;;;;;9172610;19;20010;-73
2021/12/31 02:03:51;;;;;;;0.50;0.20;;;14.40;99.90;;;;;;9168778;19;20026;-73
2021/12/31 02:06:56;;;;;;;0.40;0.20;;;14.50;99.90;;;;;;9171313;19;20787;-73
2021/12/31 02:10:01;;;;;;;0.28;0.20;;;14.50;99.90;;;;;;9170481;19;20019;-73
2021/12/31 02:13:07;;;;;;;0.20;0.10;;;14.50;99.90;;;;;;9173452;19;20021;-74
2021/12/31 02:16:12;;;;;;;0.45;0.20;;;14.50;99.90;;;;;;9171568;19;20019;-73
2021/12/31 02:19:27;;;;;;;0.40;0.20;;;14.50;99.90;;;;;;9179963;19;20081;-75
2021/12/31 02:22:38;;;;;;;0.30;0.30;;;14.50;99.90;;;;;;9177355;19;20011;-74
2021/12/31 02:25:43;;;;;;;0.30;0.20;;;14.50;99.90;;;;;;9178207;19;20499;-74
2021/12/31 02:28:48;;;;;;;0.55;0.17;;;14.50;99.90;;;;;;9177662;19;20017;-73
2021/12/31 02:31:53;;;;;;;0.60;0.30;;;14.50;99.90;;;;;;9179048;19;20613;-74
2021/12/31 02:34:58;;;;;;;0.50;0.28;;;14.40;99.90;;;;;;9179889;19;20018;-73
2021/12/31 02:38:08;;;;;;;0.10;0.10;;;14.40;99.90;;;;;;9182354;19;20010;-74
2021/12/31 02:41:14;;;;;;;0.45;0.10;;;14.40;99.90;;;;;;9177015;19;20022;-74
2021/12/31 02:44:19;;;;;;;0.25;0.10;;;14.40;99.90;;;;;;9176869;19;20019;-74
2021/12/31 02:47:24;;;;;;;0.30;0.10;;;14.40;99.90;;;;;;9175741;19;20098;-74
2021/12/31 02:50:33;;;;;;;0.22;0.10;;;14.40;99.90;;;;;;9178601;19;20479;-74
2021/12/31 02:53:44;;;;;;;0.43;0.20;;;14.40;99.90;;;;;;9175495;19;20018;-74
2021/12/31 02:56:49;;;;;;;0.28;0.10;;;14.40;99.90;;;;;;9180069;19;20086;-73
2021/12/31 02:59:54;;;;;;;0.35;0.20;;;14.40;99.90;;;;;;9175207;19;20044;-74
2021/12/31 03:03:01;;;;;;;0.17;0.10;;;14.40;99.90;;;;;;9175546;19;20355;-73
2021/12/31 03:06:06;;;;;;;0.20;0.20;;;14.40;99.90;;;;;;9178023;19;20361;-74
2021/12/31 03:09:15;;;;;;;0.20;0.10;;;14.40;99.90;;;;;;9176903;19;20046;-74
2021/12/31 03:12:21;;;;;;;0.30;0.13;;;14.40;99.90;;;;;;9179858;19;20026;-74
2021/12/31 03:15:27;;;;;;;0.35;0.17;;;14.30;99.90;;;;;;9178742;19;20018;-73
2021/12/31 03:18:33;;;;;;;0.47;0.13;;;14.40;99.90;;;;;;9175157;19;20015;-74
2021/12/31 03:21:38;;;;;;;0.20;0.10;;;14.30;99.90;;;;;;9176471;19;20052;-73
2021/12/31 03:24:46;;;;;;;0.10;0.10;;;14.30;99.90;;;;;;9176276;19;20026;-73
2021/12/31 03:27:51;;;;;;;0.38;0.10;;;14.30;99.90;;;;;;9175748;19;20564;-73
2021/12/31 03:30:56;;;;;;;0.40;0.20;;;14.30;99.90;;;;;;9176119;19;20019;-73
2021/12/31 03:34:01;;;;;;;0.15;0.10;;;14.30;99.90;;;;;;9177496;19;20019;-74
2021/12/31 03:37:06;;;;;;;0.75;0.20;;;14.30;99.90;;;;;;9178686;19;20056;-74
2021/12/31 03:40:15;;;;;;;0.10;0.10;;;14.30;99.90;;;;;;9177964;19;20022;-74
2021/12/31 03:43:20;;;;;;;0.30;0.20;;;14.30;99.90;;;;;;9178364;19;20022;-74
2021/12/31 03:46:25;;;;;;;0.30;0.10;;;14.30;99.90;;;;;;9177187;19;20475;-73
2021/12/31 03:49:30;;;;;;;0.10;0.10;;;14.20;99.90;;;;;;9179480;19;20025;-73
2021/12/31 03:52:39;;;;;;;0.43;0.20;;;14.30;99.90;;;;;;9180183;19;20018;-74
2021/12/31 03:55:47;;;;;;;0.47;0.20;;;14.20;99.90;;;;;;9175076;19;20018;-73
2021/12/31 03:58:54;;;;;;;0.10;0.10;;;14.30;99.90;;;;;;9178514;19;20014;-74
2021/12/31 04:01:59;;;;;;;0.10;0.10;;;14.20;99.90;;;;;;9178860;19;20034;-74
2021/12/31 04:05:05;;;;;;;0.52;0.30;;;14.30;99.90;;;;;;9176182;19;20019;-72
2021/12/31 04:08:11;;;;;;;0.17;0.10;;;14.20;99.90;;;;;;9178012;19;20022;-73
2021/12/31 04:11:19;;;;;;;0.35;0.25;;;14.20;99.90;;;;;;9178326;19;20025;-73
2021/12/31 04:14:24;;;;;;;0.10;0.10;;;14.20;99.90;;;;;;9177545;19;20023;-73
2021/12/31 04:17:30;;;;;;;0.47;0.20;;;14.20;99.90;;;;;;9178683;19;20018;-74
2021/12/31 04:20:40;;;;;;;0.70;0.20;;;14.20;99.90;;;;;;9178139;19;20022;-73
2021/12/31 04:23:53;;;;;;;0.40;0.10;;;14.20;99.90;;;;;;9178412;19;20015;-74
2021/12/31 04:27:00;;;;;;;0.17;0.10;;;14.20;99.90;;;;;;9175618;19;20018;-74
2021/12/31 04:30:07;;;;;;;0.30;0.20;;;14.30;99.90;;;;;;9176057;19;20521;-74
2021/12/31 04:33:12;;;;;;;0.20;0.10;;;14.20;99.90;;;;;;9175205;19;20357;-74
2021/12/31 04:36:17;;;;;;;0.38;0.20;;;14.30;99.90;;;;;;9177034;19;20007;-74
2021/12/31 04:39:23;;;;;;;0.30;0.20;;;14.30;99.90;;;;;;9177261;19;20006;-74
2021/12/31 04:42:30;;;;;;;0.25;0.20;;;14.30;99.90;;;;;;9177162;19;20686;-75
2021/12/31 04:45:35;;;;;;;0.10;0.00;;;14.30;99.90;;;;;;9176938;19;20060;-74
2021/12/31 04:48:41;;;;;;;0.00;0.00;;;14.30;99.90;;;;;;9176347;19;20094;-74
2021/12/31 04:51:46;;;;;;;0.32;0.10;;;14.30;99.90;;;;;;9174561;19;20047;-74
2021/12/31 04:54:50;;;;;;;0.20;0.10;;;14.30;99.90;;;;;;9171693;19;20025;-75
2021/12/31 04:57:58;;;;;;;0.20;0.10;;;14.40;99.90;;;;;;9176657;19;20022;-74
2021/12/31 05:01:03;;;;;;;0.70;0.17;;;14.40;99.90;;;;;;9176979;19;20049;-73
2021/12/31 05:04:08;;;;;;;0.10;0.10;;;14.40;99.90;;;;;;9176553;19;20171;-73
2021/12/31 05:07:13;;;;;;;0.30;0.13;;;14.40;99.90;;;;;;9177049;19;20352;-74
2021/12/31 05:10:18;;;;;;;0.25;0.10;;;14.40;99.90;;;;;;9174445;19;20014;-74
2021/12/31 05:13:26;;;;;;;0.10;0.10;;;14.40;99.90;;;;;;9175524;19;20619;-74
2021/12/31 05:16:31;;;;;;;0.10;0.10;;;14.40;99.90;;;;;;9174009;19;20048;-75
2021/12/31 05:19:36;;;;;;;0.30;0.10;;;14.40;99.90;;;;;;9176382;19;20010;-74
2021/12/31 05:22:41;;;;;;;0.38;0.20;;;14.40;99.90;;;;;;9177409;19;20018;-74
2021/12/31 05:25:46;;;;;;;0.17;0.08;;;14.50;99.90;;;;;;9173689;19;20026;-73
2021/12/31 05:28:53;;;;;;;0.22;0.10;;;14.40;99.90;;;;;;9178101;19;20022;-75
2021/12/31 05:31:58;;;;;;;0.00;0.00;;;14.50;99.90;;;;;;9174952;19;20013;-74
2021/12/31 05:35:03;;;;;;;0.20;0.10;;;14.50;99.90;;;;;;9174692;19;20017;-74
2021/12/31 05:38:08;;;;;;;0.52;0.17;;;14.50;99.90;;;;;;9172965;19;20021;-74
2021/12/31 05:41:13;;;;;;;0.35;0.17;;;14.50;99.90;;;;;;9172190;19;20486;-73
2021/12/31 05:44:21;;;;;;;0.10;0.08;;;14.50;99.90;;;;;;9176427;19;20019;-73
2021/12/31 05:47:27;;;;;;;0.15;0.10;;;14.50;99.90;;;;;;9177068;19;20026;-74
2021/12/31 05:50:32;;;;;;;0.17;0.13;;;14.50;99.90;;;;;;9175329;19;20030;-74
2021/12/31 05:53:37;;;;;;;0.10;0.10;;;14.50;99.90;;;;;;9176892;19;20025;-74
2021/12/31 05:56:42;;;;;;;0.20;0.15;;;14.50;99.90;;;;;;9181898;19;20023;-73
2021/12/31 05:59:49;;;;;;;0.10;0.05;;;14.50;99.90;;;;;;9181486;19;20006;-74
2021/12/31 06:02:54;;;;;;;0.03;0.03;;;14.50;99.90;;;;;;9183574;19;20503;-74
2021/12/31 06:06:00;;;;;;;0.10;0.10;;;14.50;99.90;;;;;;9181640;19;20404;-74
2021/12/31 06:09:08;;;;;;;0.32;0.10;;;14.50;99.90;;;;;;9186398;19;20018;-74
2021/12/31 06:12:13;;;;;;;0.25;0.20;;;14.50;99.90;;;;;;9185062;19;20024;-74
2021/12/31 06:15:21;;;;;;;1.35;0.20;;;14.50;99.90;;;;;;9179295;19;20014;-73
2021/12/31 06:18:28;;;;;;;0.43;0.10;;;14.40;99.90;;;;;;9181689;19;20021;-74
2021/12/31 06:21:34;;;;;;;0.25;0.10;;;14.40;99.90;;;;;;9181241;19;20038;-74
2021/12/31 06:24:41;;;;;;;0.20;0.10;;;14.40;99.90;;;;;;9183024;19;20038;-74
2021/12/31 06:27:46;;;;;;;0.20;0.10;;;14.30;99.90;;;;;;9183389;19;20014;-74
2021/12/31 06:30:53;;;;;;;0.52;0.22;;;14.30;99.90;;;;;;9180457;19;20018;-74
2021/12/31 06:33:59;;;;;;;0.20;0.10;;;14.30;99.90;;;;;;9183320;19;20022;-74
2021/12/31 06:37:04;;;;;;;0.32;0.10;;;14.30;99.90;;;;;;9179099;19;20018;-74
2021/12/31 06:40:12;;;;;;;0.10;0.10;;;14.20;99.90;;;;;;9179234;19;20018;-73
2021/12/31 06:43:17;;;;;;;0.38;0.10;;;14.20;99.90;;;;;;9180187;19;20025;-74
2021/12/31 06:46:24;;;;;;;0.20;0.10;;;14.20;99.90;;;;;;9181369;19;20376;-73
2021/12/31 06:49:29;;;;;;;0.40;0.20;;;14.10;99.90;;;;;;9180563;19;20057;-74
2021/12/31 06:52:38;;;;;;;0.40;0.25;;;14.10;99.90;;;;;;9182148;19;20022;-72
2021/12/31 06:55:44;;;;;;;0.22;0.10;;;14.10;99.90;;;;;;9179521;19;20019;-73
2021/12/31 06:58:49;;;;;;;0.28;0.10;;;14.10;99.90;;;;;;9179987;19;20348;-73
2021/12/31 07:01:57;;;;;;;0.45;0.20;;;14.10;99.90;;;;;;9178301;19;20357;-74
2021/12/31 07:05:03;;;;;;;0.20;0.13;;;14.00;99.90;;;;;;9179946;19;20366;-75
2021/12/31 07:08:08;;;;;;;0.20;0.15;;;14.00;99.90;;;;;;9179428;19;20021;-74
2021/12/31 07:11:13;;;;;;;0.22;0.15;;;14.00;99.90;;;;;;9182151;19;20029;-74
2021/12/31 07:14:18;;;;;;;0.17;0.17;;;13.90;99.90;;;;;;9181963;19;20010;-73
2021/12/31 07:17:28;;;;;;;0.57;0.15;;;13.90;99.90;;;;;;9182478;19;20018;-75
2021/12/31 07:20:33;;;;;;;0.20;0.10;;;13.90;99.90;;;;;;9176308;19;20015;-74
2021/12/31 07:23:38;;;;;;;0.30;0.15;;;13.90;99.90;;;;;;9179194;19;20010;-74
2021/12/31 07:26:43;;;;;;;0.10;0.10;;;13.90;99.90;;;;;;9177382;19;20017;-72
2021/12/31 07:29:48;;;;;;;0.20;0.17;;;13.80;99.90;;;;;;9179883;19;20021;-73
2021/12/31 07:32:56;;;;;;;0.40;0.20;;;13.90;99.90;;;;;;9178251;19;20019;-73
2021/12/31 07:36:01;;;;;;;0.38;0.20;;;13.90;99.90;;;;;;9179928;19;20476;-74
2021/12/31 07:39:08;;;;;;;0.22;0.15;;;13.80;99.90;;;;;;9180210;19;20375;-74
2021/12/31 07:42:13;;;;;;;0.45;0.20;;;13.90;99.90;;;;;;9180670;19;20018;-73
2021/12/31 07:45:18;;;;;;;0.30;0.20;;;13.80;99.90;;;;;;9179206;19;20018;-73
2021/12/31 07:48:26;;;;;;;0.30;0.20;;;13.90;99.90;;;;;;9176494;19;20018;-74
2021/12/31 07:51:31;;;;;;;0.20;0.20;;;13.90;99.90;;;;;;9177815;19;20026;-74
2021/12/31 07:54:36;;;;;;;0.20;0.10;;;13.90;99.90;;;;;;9174081;19;20015;-72
2021/12/31 07:57:41;;;;;;;0.20;0.20;;;13.90;99.90;;;;;;9179512;19;20021;-73
2021/12/31 08:00:47;;;;;;;0.10;0.10;;;13.90;99.90;;;;;;9181610;19;20014;-73
2021/12/31 08:03:54;;;;;;;0.10;0.10;;;13.90;99.90;;;;;;9178064;19;20472;-74
2021/12/31 08:06:59;;;;;;;0.22;0.20;;;13.90;99.90;;;;;;9175156;19;20022;-74
2021/12/31 08:10:05;;;;;;;0.35;0.10;;;13.90;99.90;;;;;;9175315;19;20022;-73
2021/12/31 08:13:30;;;;;;;0.25;0.10;;;13.90;99.90;;;;;;9175767;19;20014;-73
2021/12/31 08:16:35;;;;;;;0.63;0.20;;;13.90;99.90;;;;;;9177144;19;20019;-74
2021/12/31 08:19:44;;;;;;;0.28;0.13;;;13.90;99.90;;;;;;9177865;19;20416;-73
2021/12/31 08:22:49;;;;;;;0.70;0.30;;;13.80;99.90;;;;;;9178345;19;20487;-72
2021/12/31 08:25:54;;;;;;;0.25;0.10;;;13.80;99.90;;;;;;9177816;19;20014;-73
2021/12/31 08:28:59;;;;;;;0.10;0.03;;;13.80;99.90;;;;;;9174912;19;20021;-74
2021/12/31 08:32:04;;;;;;;0.30;0.20;;;13.80;99.90;;;;;;9174603;19;20011;-73
2021/12/31 08:35:12;;;;;;;0.20;0.10;;;13.80;99.90;;;;;;9173974;19;20021;-74
2021/12/31 08:38:17;;;;;;;0.50;0.15;;;13.80;99.90;;;;;;9174587;19;20021;-74
2021/12/31 08:41:22;;;;;;;0.52;0.20;;;13.80;99.90;;;;;;9175558;19;20022;-74
2021/12/31 08:44:47;;;;;;;0.28;0.13;;;13.80;99.90;;;;;;9176236;19;20036;-73
2021/12/31 08:47:54;;;;;;;0.47;0.20;;;13.80;99.90;;;;;;9172960;19;20022;-73
2021/12/31 08:51:02;;;;;;;0.55;0.20;;;13.70;99.90;;;;;;9175445;19;20081;-73
2021/12/31 08:54:09;;;;;;;0.40;0.15;;;13.70;99.90;;;;;;9168893;19;20048;-74
2021/12/31 08:57:14;;;;;;;0.45;0.20;;;13.80;99.90;;;;;;9169791;19;20013;-73
2021/12/31 09:00:20;;;;;;;0.17;0.10;;;13.70;99.90;;;;;;9172385;19;20370;-74
2021/12/31 09:03:25;;;;;;;0.20;0.10;;;13.70;99.90;;;;;;9171881;19;20113;-74
2021/12/31 09:06:33;;;;;;;0.00;0.00;;;13.70;99.90;;;;;;9161736;19;20790;-73
2021/12/31 09:09:38;;;;;;;0.10;0.00;;;13.80;99.90;;;;;;9175333;19;20022;-74
2021/12/31 09:12:44;;;;;;;0.43;0.20;;;13.70;99.90;;;;;;9175103;19;20018;-74
2021/12/31 09:15:49;;;;;;;0.08;0.08;;;13.70;99.90;;;;;;9171044;19;20014;-73
2021/12/31 09:18:55;;;;;;;0.20;0.20;;;13.80;99.90;;;;;;9171629;19;20014;-74
2021/12/31 09:22:04;;;;;;;0.17;0.10;;;13.80;99.90;;;;;;9175628;19;20052;-73
2021/12/31 09:25:09;;;;;;;0.30;0.17;;;13.80;99.90;;;;;;9173712;19;20070;-75
2021/12/31 09:28:15;;;;;;;0.65;0.10;;;13.80;99.90;;;;;;9178932;19;20487;-73
2021/12/31 09:31:21;;;;;;;0.60;0.28;;;13.80;99.90;;;;;;9186503;19;20427;-74
2021/12/31 09:34:26;;;;;;;0.20;0.10;;;13.80;99.90;;;;;;9186028;19;20010;-74
2021/12/31 09:37:34;;;;;;;0.38;0.05;;;13.80;99.90;;;;;;9182856;19;20052;-75
2021/12/31 09:40:40;;;;;;;0.30;0.20;;;13.80;99.90;;;;;;9181075;19;20033;-74
2021/12/31 09:43:50;;;;;;;0.13;0.13;;;13.80;99.90;;;;;;9181329;19;20045;-74
2021/12/31 09:46:55;;;;;;;0.22;0.20;;;13.80;99.90;;;;;;9183439;19;20036;-74
2021/12/31 09:50:00;;;;;;;0.32;0.20;;;13.80;99.90;;;;;;9172768;19;20026;-74
2021/12/31 09:53:08;;;;;;;0.30;0.08;;;13.80;99.90;;;;;;9170561;19;20755;-73
2021/12/31 09:56:13;;;;;;;0.10;0.10;;;13.80;99.90;;;;;;9176656;19;20025;-73
2021/12/31 09:59:18;;;;;;;0.20;0.20;;;13.80;99.90;;;;;;9174514;19;20028;-74
2021/12/31 10:02:33;;;;;;;0.08;0.00;;;13.80;99.90;;;;;;9175868;19;20018;-74
2021/12/31 10:05:42;;;;;;;0.15;0.10;;;13.90;99.90;;;;;;9175160;19;20793;-74
2021/12/31 10:08:51;;;;;;;0.40;0.15;;;13.90;99.90;;;;;;9169269;19;20582;-73
2021/12/31 10:12:00;;;;;;;0.00;0.00;;;13.90;99.90;;;;;;9171958;19;20475;-74
2021/12/31 10:15:05;;;;;;;0.50;0.20;;;13.90;99.90;;;;;;9172782;19;20562;-74
2021/12/31 10:18:15;;;;;;;0.10;0.10;;;13.90;99.90;;;;;;9171922;19;20602;-73
2021/12/31 10:21:20;;;;;;;0.52;0.20;;;13.90;99.90;;;;;;9173173;19;20375;-73
2021/12/31 10:24:36;;;;;;;0.60;0.60;;;13.90;99.90;;;;;;9169155;19;20494;-74
2021/12/31 10:27:41;;;;;;;0.20;0.20;;;14.00;99.90;;;;;;9168850;19;20400;-74
2021/12/31 10:30:46;;;;;;;0.35;0.10;;;13.90;99.90;;;;;;9168231;19;20747;-75
2021/12/31 10:33:52;;;;;;;0.40;0.10;;;14.00;99.90;;;;;;9168963;19;20018;-75
2021/12/31 10:36:59;;;;;;;0.10;0.10;;;14.00;99.90;;;;;;9170591;19;20022;-73
2021/12/31 10:40:08;;;;;;;0.10;0.10;;;14.00;99.90;;;;;;9171360;19;20025;-73
2021/12/31 10:43:18;;;;;;;0.10;0.10;;;14.00;99.90;;;;;;9175094;19;20026;-73
2021/12/31 10:46:23;;;;;;;0.10;0.10;;;14.10;99.90;;;;;;9176091;19;20471;-74
2021/12/31 10:49:28;;;;;;;0.50;0.50;;;14.10;99.90;;;;;;9172702;19;20393;-74
2021/12/31 10:52:38;;;;;;;0.50;0.50;;;14.10;99.90;;;;;;9171249;19;20034;-73
2021/12/31 10:55:46;;;;;;;0.08;0.00;;;14.10;99.90;;;;;;9167410;19;20029;-74
2021/12/31 10:59:03;;;;;;;0.10;0.10;;;14.10;99.80;;;;;;9172197;19;20039;-74
2021/12/31 11:02:08;;;;;;;0.35;0.20;;;14.10;99.80;;;;;;9171761;19;20059;-73
2021/12/31 11:05:14;;;;;;;0.30;0.20;;;14.10;99.80;;;;;;9171433;19;20468;-74
2021/12/31 11:08:20;;;;;;;0.10;0.10;;;14.10;99.80;;;;;;9172839;19;20022;-73
2021/12/31 11:11:28;;;;;;;0.00;0.00;;;14.10;99.80;;;;;;9168556;19;20022;-74
2021/12/31 11:14:35;;;;;;;0.35;0.20;;;14.10;99.80;;;;;;9171337;19;20014;-74
2021/12/31 11:17:40;;;;;;;0.10;0.10;;;14.10;99.80;;;;;;9172737;19;20831;-74
2021/12/31 11:20:47;;;;;;;0.45;0.25;;;14.10;99.80;;;;;;9173682;19;20018;-73
2021/12/31 11:23:52;;;;;;;0.30;0.20;;;14.10;99.70;;;;;;9174387;19;20018;-74
2021/12/31 11:27:00;;;;;;;0.17;0.17;;;14.10;99.70;;;;;;9175147;19;20018;-74
2021/12/31 11:30:07;;;;;;;0.10;0.10;;;14.10;99.70;;;;;;9171379;19;20490;-73
2021/12/31 11:33:17;;;;;;;0.45;0.10;;;14.10;99.70;;;;;;9172645;19;20014;-75
2021/12/31 11:36:39;;;;;;;0.88;0.77;;;14.10;99.70;;;;;;9172043;19;20028;-74
2021/12/31 11:39:44;;;;;;;0.40;0.40;;;14.10;99.60;;;;;;9173082;19;20018;-74
2021/12/31 11:43:24;;;;;;;0.20;0.10;;;14.10;99.70;;;;;;9173304;19;20026;-74
2021/12/31 11:46:37;;;;;;;1.77;0.50;;;14.10;99.60;;;;;;9177780;19;20014;-75
2021/12/31 11:49:43;;;;;;;2.95;2.35;;;14.10;99.60;;;;;;9173714;19;20014;-74
2021/12/31 11:53:02;;;;;;;0.98;0.43;;;14.10;99.60;;;;;;9179588;19;20018;-74
2021/12/31 11:56:07;;;;;;;0.68;0.30;;;14.00;99.50;;;;;;9179732;19;20018;-75
2021/12/31 11:59:45;;;;;;;0.08;0.08;;;14.00;99.60;;;;;;9178002;19;20403;-75
2021/12/31 12:02:53;;;;;;;0.22;0.10;;;14.00;99.60;;;;;;9177194;19;20424;-74
2021/12/31 12:05:58;;;;;;;0.43;0.10;;;14.00;99.60;;;;;;9180314;19;20696;-74
2021/12/31 12:09:03;;;;;;;0.13;0.10;;;14.00;99.70;;;;;;9176437;19;20015;-75
2021/12/31 12:12:11;;;;;;;0.30;0.20;;;14.00;99.70;;;;;;9178278;19;20018;-75
2021/12/31 12:15:36;;;;;;;0.43;0.20;;;14.00;99.70;;;;;;9176245;19;20503;-74
2021/12/31 12:19:01;;;;;;;0.57;0.10;;;14.00;99.70;;;;;;9178065;19;20017;-74
2021/12/31 12:22:06;;;;;;;0.17;0.10;;;14.00;99.80;;;;;;9175114;19;20376;-74
2021/12/31 12:25:17;;;;;;;0.25;0.13;;;14.00;99.80;;;;;;9172791;19;20038;-74
2021/12/31 12:28:23;;;;;;;0.20;0.20;;;14.10;99.90;;;;;;9176279;19;20030;-73
2021/12/31 12:31:34;;;;;;;0.40;0.20;;;14.10;99.90;;;;;;9175322;19;20430;-75
2021/12/31 12:34:41;;;;;;;0.35;0.15;;;14.10;99.80;;;;;;9174619;19;20010;-74
2021/12/31 12:37:58;;;;;;;0.40;0.20;;;14.10;99.80;;;;;;9171812;19;20017;-74
2021/12/31 12:41:09;;;;;;;0.50;0.20;;;14.20;99.80;;;;;;9172854;19;20017;-74
2021/12/31 12:44:16;;;;;;;0.20;0.10;;;14.20;99.80;;;;;;9172605;19;20022;-74
2021/12/31 12:47:24;;;;;;;0.75;0.17;;;14.20;99.80;;;;;;9170431;19;20015;-74
2021/12/31 12:50:31;;;;;;;0.45;0.10;;;14.20;99.80;;;;;;9169300;19;20518;-74
2021/12/31 12:53:38;;;;;;;0.10;0.10;;;14.30;99.80;;;;;;9160754;19;20026;-74
2021/12/31 12:56:43;;;;;;;0.17;0.10;;;14.30;99.80;;;;;;9165755;19;20127;-73
2021/12/31 12:59:49;;;;;;;0.40;0.25;;;14.30;99.80;;;;;;9166405;19;20498;-74
2021/12/31 13:02:54;;;;;;;0.10;0.10;;;14.30;99.80;;;;;;9164538;19;20025;-74
2021/12/31 13:06:09;;;;;;;0.10;0.10;;;14.30;99.80;;;;;;9166832;19;20026;-74
2021/12/31 13:09:18;;;;;;;0.05;0.05;;;14.30;99.70;;;;;;9169051;19;20022;-74
2021/12/31 13:12:27;;;;;;;0.25;0.20;;;14.30;99.80;;;;;;9167817;19;20360;-74
2021/12/31 13:15:33;;;;;;;0.17;0.10;;;14.30;99.80;;;;;;9169176;19;20019;-74
2021/12/31 13:18:38;;;;;;;0.57;0.40;;;14.30;99.80;;;;;;9170843;19;20594;-73
2021/12/31 13:21:46;;;;;;;0.17;0.10;;;14.30;99.80;;;;;;9170411;19;20025;-73
2021/12/31 13:24:56;;;;;;;0.40;0.20;;;14.30;99.80;;;;;;9168541;19;20115;-73
2021/12/31 13:28:15;;;;;;;0.10;0.03;;;14.30;99.70;;;;;;9165629;19;20030;-74
2021/12/31 13:31:33;;;;;;;0.30;0.20;;;14.30;99.70;;;;;;9166989;19;20018;-73
2021/12/31 13:34:43;;;;;;;0.43;0.30;;;14.30;99.70;;;;;;9166410;19;20026;-73
2021/12/31 13:38:06;;;;;;;0.50;0.20;;;14.30;99.80;;;;;;9166232;19;20052;-73
2021/12/31 13:41:21;;;;;;;0.25;0.17;;;14.30;99.70;;;;;;9167778;19;20014;-73
2021/12/31 13:44:29;;;;;;;0.20;0.20;;;14.30;99.70;;;;;;9168432;19;20019;-74
2021/12/31 13:47:34;;;;;;;0.30;0.20;;;14.30;99.80;;;;;;9168776;19;20022;-74
2021/12/31 13:50:39;;;;;;;0.35;0.17;;;14.40;99.80;;;;;;9165901;19;20014;-72
2021/12/31 13:53:53;;;;;;;1.08;0.20;;;14.40;99.80;;;;;;9163240;19;20010;-73
2021/12/31 13:56:58;;;;;;;0.15;0.15;;;14.40;99.80;;;;;;9166451;19;20014;-73
2021/12/31 14:00:12;;;;;;;0.30;0.22;;;14.40;99.80;;;;;;9162490;19;20014;-74
2021/12/31 14:03:18;;;;;;;;;;;14.40;99.90;;;;;;9166244;19;20115;-73
2021/12/31 14:06:27;;;;;;;0.38;0.20;;;14.40;99.80;;;;;;9165989;19;19922;-73
2021/12/31 14:09:34;;;;;;;0.40;0.20;;;14.50;99.90;;;;;;9165689;19;20033;-72
2021/12/31 14:12:50;;;;;;;0.32;0.13;;;14.50;99.90;;;;;;9170850;19;20120;-71
2021/12/31 14:15:55;;;;;;;0.32;0.28;;;14.50;99.90;;;;;;9176248;19;20014;-72
2021/12/31 14:19:00;;;;;;;0.20;0.10;;;14.50;99.90;;;;;;9174313;19;20487;-73
2021/12/31 14:22:06;;;;;;;0.20;0.20;;;14.50;99.80;;;;;;9174954;19;20052;-73
2021/12/31 14:25:14;;;;;;;0.25;0.20;;;14.50;99.80;;;;;;9174115;19;20044;-73
2021/12/31 14:28:19;;;;;;;0.35;0.17;;;14.50;99.80;;;;;;9174626;19;20316;-73
2021/12/31 14:31:24;;;;;;;1.10;0.13;;;14.60;99.80;;;;;;9174305;19;20077;-73
2021/12/31 14:34:31;;;;;;;0.73;0.32;;;14.50;99.80;;;;;;9175626;19;20357;-72
2021/12/31 14:37:40;;;;;;;0.35;0.10;;;14.60;99.80;;;;;;9178749;19;20807;-73
2021/12/31 14:40:49;;;;;;;0.50;0.20;;;14.60;99.80;;;;;;9172014;19;20022;-73
2021/12/31 14:43:59;;;;;;;0.50;0.30;;;14.60;99.70;;;;;;9173973;19;20029;-73
2021/12/31 14:47:04;;;;;;;0.40;0.30;;;14.60;99.80;;;;;;9172173;19;20056;-73
2021/12/31 14:50:11;;;;;;;0.40;0.28;;;14.60;99.70;;;;;;9172542;19;20022;-72
2021/12/31 14:53:17;;;;;;;0.30;0.28;;;14.60;99.70;;;;;;9170480;19;20019;-73
2021/12/31 14:56:24;;;;;;;0.40;0.30;;;14.60;99.70;;;;;;9174929;19;20019;-73
2021/12/31 14:59:30;;;;;;;0.45;0.22;;;14.60;99.70;;;;;;9174695;19;20021;-73
2021/12/31 15:02:35;;;;;;;0.32;0.15;;;14.60;99.70;;;;;;9169523;19;20018;-73
2021/12/31 15:05:40;;;;;;;0.45;0.28;;;14.60;99.60;;;;;;9169882;19;20487;-72
2021/12/31 15:08:45;;;;;;;0.45;0.28;;;14.60;99.60;;;;;;9169592;19;20021;-72
2021/12/31 15:11:54;;;;;;;0.50;0.38;;;14.60;99.60;;;;;;9171495;19;20018;-73
2021/12/31 15:15:00;;;;;;;0.68;0.30;;;14.60;99.60;;;;;;9171741;19;20341;-72
2021/12/31 15:18:05;;;;;;;0.43;0.30;;;14.60;99.60;;;;;;9172983;19;20018;-72
2021/12/31 15:21:10;;;;;;;0.50;0.20;;;14.60;99.60;;;;;;9174374;19;20794;-73
2021/12/31 15:24:20;;;;;;;0.22;0.22;;;14.60;99.60;;;;;;9168813;19;20029;-73
2021/12/31 15:27:27;;;;;;;0.30;0.30;;;14.60;99.50;;;;;;9171850;19;20364;-73
2021/12/31 15:30:33;;;;;;;0.65;0.40;;;14.50;99.50;;;;;;9171512;19;20561;-72
2021/12/31 15:33:39;;;;;;;0.77;0.50;;;14.50;99.50;;;;;;9173526;19;20026;-72
2021/12/31 15:36:44;;;;;;;0.30;0.20;;;14.50;99.50;;;;;;9172775;19;20037;-73
2021/12/31 15:39:49;;;;;;;0.50;0.30;;;14.50;99.50;;;;;;9170551;19;20052;-72
2021/12/31 15:42:57;;;;;;;0.60;0.30;;;14.50;99.50;;;;;;9173902;19;20018;-73
2021/12/31 15:46:02;;;;;;;0.65;0.40;;;14.50;99.50;;;;;;9168893;19;20019;-72
2021/12/31 15:49:08;;;;;;;0.30;0.30;;;14.50;99.50;;;;;;9169754;19;20018;-72
2021/12/31 15:52:13;;;;;;;0.52;0.30;;;14.50;99.50;;;;;;9170976;19;20338;-72
2021/12/31 15:55:19;;;;;;;0.38;0.22;;;14.40;99.50;;;;;;9167885;19;20513;-72
2021/12/31 15:58:26;;;;;;;1.17;0.40;;;14.40;99.50;;;;;;9172893;19;20490;-72
2021/12/31 16:01:32;;;;;;;0.70;0.38;;;14.40;99.50;;;;;;9172118;19;20127;-72
2021/12/31 16:04:37;;;;;;;0.50;0.50;;;14.40;99.80;;;;;;9173379;19;20450;-72
2021/12/31 16:07:42;;;;;;;0.30;0.30;;;14.40;99.50;;;;;;9170182;19;20019;-73
2021/12/31 16:10:47;;;;;;;0.47;0.40;;;14.40;99.50;;;;;;9169049;19;20029;-72
2021/12/31 16:13:56;;;;;;;0.60;0.40;;;14.30;99.50;;;;;;9171327;19;20650;-73
2021/12/31 16:17:01;;;;;;;0.85;0.60;;;14.40;99.50;;;;;;9169563;19;20013;-72